createdAt,value
2023-01-30T00:01:18.062Z,18.70
2023-01-30T00:03:46.314Z,21.10
2023-01-30T00:06:15.288Z,18.20
2023-01-30T00:08:43.669Z,19.90
2023-01-30T00:11:14.836Z,16.50
2023-01-30T00:13:44.618Z,16.80
2023-01-30T00:16:12.965Z,17.70
2023-01-30T00:18:41.723Z,16.50
2023-01-30T00:21:12.312Z,16.30
2023-01-30T00:23:41.423Z,14.90
2023-01-30T00:26:10.029Z,15.10
2023-01-30T00:28:41.219Z,14.10
2023-01-30T00:31:13.918Z,13.50
2023-01-30T00:33:42.282Z,14.40
2023-01-30T00:36:10.895Z,14.40
2023-01-30T00:38:39.310Z,14.60
2023-01-30T00:41:10.962Z,15.30
2023-01-30T00:43:58.116Z,13.70
2023-01-30T00:46:47.601Z,15.00
2023-01-30T00:49:15.923Z,13.60
2023-01-30T00:51:44.320Z,14.60
2023-01-30T00:54:13.206Z,14.30
2023-01-30T00:56:41.912Z,13.90
2023-01-30T00:59:10.376Z,16.50
2023-01-30T01:01:39.582Z,15.00
2023-01-30T01:04:09.030Z,15.70
2023-01-30T01:06:38.498Z,15.10
2023-01-30T01:09:07.045Z,15.50
2023-01-30T01:11:35.867Z,15.10
2023-01-30T01:14:04.612Z,14.80
2023-01-30T01:16:33.972Z,15.40
2023-01-30T01:19:02.691Z,14.70
2023-01-30T01:21:31.003Z,15.60
2023-01-30T01:24:00.022Z,14.60
2023-01-30T01:26:28.327Z,15.30
2023-01-30T01:28:57.701Z,17.30
2023-01-30T01:31:26.179Z,15.50
2023-01-30T01:33:56.924Z,16.80
2023-01-30T01:36:52.216Z,17.00
2023-01-30T01:39:15.586Z,18.30
2023-01-30T01:41:43.971Z,21.00
2023-01-30T01:44:13.807Z,21.40
2023-01-30T01:46:57.308Z,28.50
2023-01-30T01:49:28.023Z,31.50
2023-01-30T01:52:08.533Z,35.20
2023-01-30T01:54:37.434Z,34.60
2023-01-30T01:57:08.745Z,40.40
2023-01-30T01:59:52.521Z,35.70
2023-01-30T02:02:21.068Z,36.70
2023-01-30T02:05:05.386Z,34.50
2023-01-30T02:07:38.624Z,30.80
2023-01-30T02:10:08.876Z,30.20
2023-01-30T02:12:38.852Z,25.90
2023-01-30T02:15:08.624Z,21.90
2023-01-30T02:17:37.742Z,21.50
2023-01-30T02:20:17.254Z,22.40
2023-01-30T02:22:58.153Z,22.40
2023-01-30T02:25:45.678Z,22.70
2023-01-30T02:28:51.758Z,20.50
2023-01-30T02:31:41.109Z,21.10
2023-01-30T02:34:32.590Z,22.10
2023-01-30T02:37:18.048Z,18.70
2023-01-30T02:40:17.810Z,21.50
2023-01-30T02:42:56.318Z,19.50
2023-01-30T02:45:37.293Z,18.70
2023-01-30T02:48:07.215Z,20.50
2023-01-30T02:50:46.552Z,18.90
2023-01-30T02:53:14.883Z,19.30
2023-01-30T02:55:44.109Z,19.30
2023-01-30T02:58:12.795Z,18.80
2023-01-30T03:01:19.682Z,19.10
2023-01-30T03:03:53.718Z,18.30
2023-01-30T03:06:27.384Z,19.30
2023-01-30T03:09:44.227Z,18.90
2023-01-30T03:12:18.321Z,20.80
2023-01-30T03:14:54.353Z,20.30
2023-01-30T03:17:24.041Z,21.10
2023-01-30T03:19:53.684Z,22.00
2023-01-30T03:22:23.155Z,20.30
2023-01-30T03:24:52.175Z,20.60
2023-01-30T03:27:20.658Z,20.70
2023-01-30T03:29:49.705Z,20.30
2023-01-30T03:32:18.465Z,20.30
2023-01-30T03:34:47.090Z,18.80
2023-01-30T03:37:16.593Z,20.80
2023-01-30T03:39:44.958Z,21.40
2023-01-30T03:42:16.595Z,20.40
2023-01-30T03:44:44.790Z,20.30
2023-01-30T03:47:13.102Z,21.50
2023-01-30T03:49:41.804Z,22.60
2023-01-30T03:52:10.246Z,21.60
2023-01-30T03:54:39.236Z,21.50
2023-01-30T03:57:08.092Z,21.40
2023-01-30T03:59:36.447Z,21.10
2023-01-30T04:02:08.963Z,22.90
2023-01-30T04:04:37.586Z,23.40
2023-01-30T04:07:08.484Z,26.50
2023-01-30T04:09:37.476Z,23.60
2023-01-30T04:12:07.496Z,24.40
2023-01-30T07:52:29.121Z,49.10
2023-01-30T07:54:56.066Z,47.10
2023-01-30T07:57:23.777Z,45.40
2023-01-30T07:59:50.690Z,35.50
2023-01-30T08:02:17.737Z,39.20
2023-01-30T08:04:44.771Z,38.70
2023-01-30T08:07:11.900Z,35.20
2023-01-30T08:09:38.685Z,32.90
2023-01-30T08:12:07.784Z,23.10
2023-01-30T08:14:35.413Z,22.70
2023-01-30T08:17:02.317Z,26.30
2023-01-30T08:19:29.446Z,29.60
2023-01-30T08:21:58.786Z,28.30
2023-01-30T08:24:25.930Z,25.10
2023-01-30T08:26:52.904Z,22.40
2023-01-30T08:29:21.530Z,19.00
2023-01-30T08:31:48.856Z,17.40
2023-01-30T08:34:19.101Z,18.60
2023-01-30T08:36:48.077Z,17.10
2023-01-30T08:39:14.944Z,14.40
2023-01-30T08:41:43.263Z,13.10
2023-01-30T08:44:11.109Z,17.50
2023-01-30T08:46:38.659Z,8.60
2023-01-30T08:49:05.817Z,9.70
2023-01-30T08:51:33.377Z,8.20
2023-01-30T08:54:00.637Z,8.30
2023-01-30T08:56:27.456Z,10.40
2023-01-30T08:58:54.315Z,10.20
2023-01-30T09:01:21.492Z,10.40
2023-01-30T09:03:48.422Z,10.30
2023-01-30T09:06:15.832Z,9.80
2023-01-30T09:08:43.204Z,11.10
2023-01-30T09:11:10.737Z,13.10
2023-01-30T09:13:42.762Z,14.50
2023-01-30T09:16:12.196Z,15.80
2023-01-30T09:18:40.628Z,15.20
2023-01-30T09:21:07.761Z,16.50
2023-01-30T09:23:35.054Z,17.20
2023-01-30T09:26:02.785Z,16.40
2023-01-30T09:28:30.256Z,17.30
2023-01-30T09:30:58.074Z,16.50
2023-01-30T09:33:24.964Z,16.30
2023-01-30T09:35:52.191Z,19.90
2023-01-30T09:38:19.623Z,20.10
2023-01-30T09:41:23.524Z,19.30
2023-01-30T09:44:12.586Z,20.50
2023-01-30T09:47:12.854Z,21.20
2023-01-30T09:50:05.951Z,18.30
2023-01-30T09:52:42.139Z,21.20
2023-01-30T09:55:22.041Z,19.10
2023-01-30T09:57:49.142Z,17.60
2023-01-30T10:00:35.340Z,21.60
2023-01-30T10:03:08.197Z,18.20
2023-01-30T10:05:48.447Z,20.00
2023-01-30T10:08:29.341Z,21.90
2023-01-30T10:11:09.537Z,26.50
2023-01-30T10:13:49.099Z,24.50
2023-01-30T10:16:34.683Z,22.60
2023-01-30T10:19:35.343Z,20.90
2023-01-30T10:22:48.722Z,20.40
2023-01-30T10:25:54.827Z,19.00
2023-01-30T10:28:29.421Z,23.10
2023-01-30T10:31:01.882Z,20.70
2023-01-30T10:33:54.995Z,19.10
2023-01-30T10:36:25.079Z,20.70
2023-01-30T10:38:52.229Z,21.70
2023-01-30T10:41:22.805Z,14.50
2023-01-30T10:43:59.551Z,11.90
2023-01-30T10:46:48.884Z,12.20
2023-01-30T10:49:24.167Z,11.70
2023-01-30T10:52:02.825Z,12.20
2023-01-30T10:54:41.441Z,9.70
2023-01-30T10:57:26.719Z,10.30
2023-01-30T11:00:13.315Z,9.90
2023-01-30T11:02:51.878Z,8.40
2023-01-30T11:05:21.929Z,9.00
2023-01-30T11:07:49.282Z,9.40
2023-01-30T11:10:18.368Z,9.10
2023-01-30T11:12:46.289Z,9.10
2023-01-30T11:15:13.736Z,9.90
2023-01-30T11:17:42.161Z,9.40
2023-01-30T11:20:13.494Z,9.60
2023-01-30T11:22:46.905Z,9.30
2023-01-30T11:25:16.831Z,9.60
2023-01-30T11:27:51.312Z,8.90
2023-01-30T11:30:19.730Z,9.50
2023-01-30T11:32:50.253Z,9.40
2023-01-30T11:35:24.894Z,9.30
2023-01-30T11:37:53.063Z,8.90
2023-01-30T11:40:26.079Z,9.60
2023-01-30T11:43:02.000Z,9.40
2023-01-30T11:45:38.544Z,10.10
2023-01-30T11:48:23.557Z,8.00
2023-01-30T11:51:03.436Z,9.10
2023-01-30T11:53:35.496Z,9.10
2023-01-30T11:56:35.054Z,8.50
2023-01-30T11:59:08.024Z,8.00
2023-01-30T12:01:36.265Z,8.30
2023-01-30T12:04:08.864Z,9.30
2023-01-30T12:06:37.705Z,8.80
2023-01-30T12:09:04.880Z,10.00
2023-01-30T12:11:41.601Z,9.10
2023-01-30T12:14:17.751Z,9.20
2023-01-30T12:17:06.328Z,8.50
2023-01-30T12:19:55.429Z,7.90
2023-01-30T12:22:48.784Z,7.90
2023-01-30T12:25:25.177Z,7.70
2023-01-30T12:28:15.615Z,7.70
2023-01-30T12:30:43.504Z,7.70
2023-01-30T12:33:14.929Z,9.10
2023-01-30T12:35:49.500Z,7.90
2023-01-30T12:38:20.760Z,8.50
2023-01-30T12:40:54.630Z,6.80
2023-01-30T12:43:55.884Z,8.30
2023-01-30T12:47:01.194Z,7.50
2023-01-30T12:49:54.070Z,7.80
2023-01-30T12:52:46.238Z,8.30
2023-01-30T12:55:48.664Z,8.20
2023-01-30T12:58:34.863Z,11.80
2023-01-30T13:01:24.745Z,10.30
2023-01-30T13:04:02.505Z,9.30
2023-01-30T13:06:32.321Z,8.00
2023-01-30T13:09:14.798Z,8.00
2023-01-30T13:11:50.185Z,9.00
2023-01-30T13:14:40.311Z,8.60
2023-01-30T13:17:19.986Z,9.20
2023-01-30T13:19:52.458Z,9.00
2023-01-30T13:22:37.894Z,11.30
2023-01-30T13:25:27.643Z,10.20
2023-01-30T13:28:01.808Z,11.70
2023-01-30T13:30:29.153Z,13.10
2023-01-30T13:33:01.485Z,15.00
2023-01-30T13:35:34.680Z,15.50
2023-01-30T13:40:38.124Z,16.70
2023-01-30T13:43:09.588Z,16.70
2023-01-30T16:54:35.886Z,19.20
2023-01-30T16:57:03.013Z,17.70
2023-01-30T16:59:32.320Z,17.40
2023-01-30T17:02:00.633Z,17.20
2023-01-30T17:04:29.546Z,23.60
2023-01-30T17:07:03.478Z,21.10
2023-01-30T17:09:42.224Z,19.40
2023-01-30T17:12:29.536Z,19.60
2023-01-30T17:15:13.473Z,16.30
2023-01-30T17:17:43.845Z,15.10
2023-01-30T17:20:11.815Z,13.70
2023-01-30T17:22:39.557Z,16.10
2023-01-30T17:25:14.438Z,13.90
2023-01-30T17:27:41.358Z,13.60
2023-01-30T17:30:15.368Z,14.40
2023-01-30T17:32:42.384Z,12.20
2023-01-30T17:35:12.608Z,10.50
2023-01-30T17:37:41.557Z,12.00
2023-01-30T17:40:16.411Z,10.40
2023-01-30T17:42:43.841Z,11.30
2023-01-30T17:45:11.421Z,11.00
2023-01-30T17:47:38.332Z,12.20
2023-01-30T17:50:05.472Z,11.60
2023-01-30T17:52:32.902Z,12.70
2023-01-30T17:54:59.718Z,12.50
2023-01-30T17:57:26.763Z,12.20
2023-01-30T17:59:54.784Z,10.70
2023-01-30T18:02:21.667Z,10.20
2023-01-30T18:04:48.524Z,10.40
2023-01-30T18:15:00.324Z,11.60
2023-01-30T18:17:29.807Z,17.30
2023-01-30T18:20:01.785Z,12.40
2023-01-30T18:22:33.423Z,11.20
2023-01-30T18:25:02.996Z,22.70
2023-01-30T18:27:32.656Z,14.80
2023-01-30T18:30:03.698Z,10.80
2023-01-30T18:32:35.359Z,13.90
2023-01-30T18:35:04.098Z,12.20
2023-01-30T18:37:32.500Z,12.20
2023-01-30T18:40:02.746Z,11.10
2023-01-30T18:42:33.735Z,10.40
2023-01-30T18:45:02.032Z,9.90
2023-01-30T18:47:33.757Z,10.10
2023-01-30T18:50:02.220Z,12.40
2023-01-30T18:52:31.856Z,10.80
2023-01-30T18:55:04.980Z,11.10
2023-01-30T18:57:37.146Z,10.30
2023-01-30T19:00:06.901Z,11.40
2023-01-30T19:02:39.068Z,10.20
2023-01-30T19:05:07.882Z,13.50
2023-01-30T19:07:36.897Z,10.10
2023-01-30T19:10:06.580Z,13.50
2023-01-30T19:12:55.028Z,12.00
2023-01-30T19:15:24.536Z,12.60
2023-01-30T19:17:54.787Z,10.90
2023-01-30T19:20:24.707Z,11.00
2023-01-30T19:22:55.253Z,10.30
2023-01-30T19:25:26.448Z,11.00
2023-01-30T19:28:14.617Z,10.40
2023-01-30T19:30:43.018Z,11.30
2023-01-30T19:33:12.180Z,11.80
2023-01-30T19:35:42.818Z,10.90
2023-01-30T19:38:11.920Z,11.40
2023-01-30T19:40:42.142Z,10.30
2023-01-30T19:43:12.227Z,14.00
2023-01-30T19:45:42.661Z,12.00
2023-01-30T19:48:11.093Z,10.80
2023-01-30T19:50:39.554Z,10.60
2023-01-30T19:53:10.294Z,9.80
2023-01-30T19:55:39.883Z,10.40
2023-01-30T19:58:08.720Z,10.90
2023-01-30T20:00:37.322Z,10.60
2023-01-30T20:03:06.693Z,9.80
2023-01-30T20:05:36.135Z,10.90
2023-01-30T20:08:05.763Z,10.20
2023-01-30T20:10:37.561Z,10.70
2023-01-30T20:13:06.139Z,11.90
2023-01-30T20:15:34.404Z,10.40
2023-01-30T20:18:03.114Z,12.20
2023-01-30T20:20:31.863Z,17.40
2023-01-30T20:23:02.265Z,11.10
2023-01-30T20:25:30.911Z,14.80
2023-01-30T20:27:59.433Z,15.70
2023-01-30T20:30:29.020Z,15.30
2023-01-30T20:32:57.855Z,15.80
2023-01-30T20:35:26.528Z,14.20
2023-01-30T20:37:54.820Z,13.10
2023-01-30T20:40:23.320Z,14.90
2023-01-30T20:42:52.360Z,13.20
2023-01-30T20:45:22.712Z,11.30
2023-01-30T20:47:50.971Z,11.00
2023-01-30T20:50:19.490Z,12.60
2023-01-30T20:52:51.791Z,12.10
2023-01-30T20:55:20.406Z,11.00
2023-01-30T20:57:49.218Z,12.00
2023-01-30T21:00:18.305Z,10.00
2023-01-30T21:02:51.143Z,9.00
2023-01-30T21:05:20.424Z,10.10
2023-01-30T21:07:49.532Z,10.70
2023-01-30T21:10:17.844Z,10.20
2023-01-30T21:12:46.749Z,9.80
2023-01-30T21:15:15.121Z,10.00
2023-01-30T21:17:43.367Z,9.90
2023-01-30T21:20:11.818Z,10.30
2023-01-30T21:22:40.233Z,10.60
2023-01-30T21:25:08.529Z,11.00
2023-01-30T21:27:39.782Z,10.40
2023-01-30T21:30:10.117Z,10.20
2023-01-30T21:32:38.775Z,12.00
2023-01-30T21:35:07.999Z,10.80
2023-01-30T21:37:54.829Z,11.50
2023-01-30T21:40:41.956Z,12.30
2023-01-30T21:43:15.984Z,10.60
2023-01-30T21:45:44.510Z,11.90
2023-01-30T21:48:12.981Z,11.10
2023-01-30T21:50:41.515Z,11.50
2023-01-30T21:53:09.910Z,11.80
2023-01-30T21:55:38.250Z,11.00
2023-01-30T21:58:06.461Z,11.70
2023-01-30T22:00:34.864Z,11.00
2023-01-30T22:03:03.133Z,12.30
2023-01-30T22:05:36.786Z,11.60
2023-01-30T22:08:05.320Z,12.80
2023-01-30T22:10:33.665Z,11.80
2023-01-30T22:13:02.183Z,11.10
2023-01-30T22:15:30.600Z,11.30
2023-01-30T22:17:58.825Z,10.30
2023-01-30T22:20:27.452Z,10.90
2023-01-30T22:22:55.700Z,12.20
2023-01-30T22:25:24.703Z,11.10
